Stations météo

Publicité
Lus-La-Croix-Haute, France (7587): Température de l'air & dewpoint: 17.04.2019 04:00:00 - 23.04.2019 04:00:00 (CEST)Lus-La-Croix-Haute, France (7587): Vitesse du vent & gusts: 17.04.2019 04:00:00 - 23.04.2019 04:00:00 (CEST)Lus-La-Croix-Haute, France (7587): Direction du vent: 17.04.2019 04:00:00 - 23.04.2019 04:00:00 (CEST)Lus-La-Croix-Haute, France (7587): Quantités de précipitations: 17.04.2019 04:00:00 - 23.04.2019 04:00:00 (CEST)
Date & Time tt [°C] td [°C] ff [km/h] ff [knt] fx [km/h] fx [knt] dd rr [mm]
23.04.2019 04:00:00 6,7 5,2 4 2 11 6 N 0,4
23.04.2019 03:00:00 7,8 4,0 4 2 26 14 SSW 0,0
23.04.2019 02:00:00 9,0 1,2 2 1 11 6 SW -
23.04.2019 01:00:00 8,7 2,0 2 1 8 4 N 0,0
23.04.2019 00:00:00 9,6 1,5 4 2 13 7 NE 0,0
22.04.2019 23:00:00 9,7 3,2 4 2 29 16 WNW 0,0
22.04.2019 22:00:00 11,2 1,7 15 8 48 26 SSE 0,0
22.04.2019 21:00:00 13,2 -1,2 8 4 29 16 S 0,0
22.04.2019 20:00:00 13,8 -1,4 8 4 26 14 SSE -
22.04.2019 19:00:00 15,0 -0,8 13 7 28 15 S 0,0
22.04.2019 18:00:00 16,7 -0,5 16 9 37 20 SE 0,0
22.04.2019 17:00:00 18,0 0,1 16 9 41 22 SE 0,0
22.04.2019 16:00:00 19,1 1,1 18 10 44 24 SSE 0,0
22.04.2019 15:00:00 19,7 0,2 18 10 39 21 S 0,0
22.04.2019 14:00:00 20,1 1,5 26 14 41 22 SSE -
22.04.2019 13:00:00 19,6 2,9 9 5 26 14 WNW 0,0
22.04.2019 12:00:00 17,6 1,9 11 6 28 15 WNW 0,0
22.04.2019 11:00:00 15,5 0,9 8 4 18 10 WNW 0,0
22.04.2019 10:00:00 12,8 1,5 5 3 11 6 SE 0,0
22.04.2019 09:00:00 8,0 3,8 2 1 9 5 SSE 0,0
22.04.2019 08:00:00 5,8 1,9 4 2 11 6 WNW -
22.04.2019 07:00:00 5,4 0,9 4 2 11 6 N 0,0
22.04.2019 06:00:00 5,1 1,0 4 2 13 7 N 0,0
22.04.2019 05:00:00 4,8 0,7 4 2 15 8 NE 0,0
22.04.2019 04:00:00 5,8 1,1 4 2 13 7 NNE 0,0
22.04.2019 03:00:00 7,3 1,8 4 2 9 5 E 0,0
22.04.2019 02:00:00 8,1 1,7 4 2 13 7 NE -
22.04.2019 01:00:00 8,9 1,8 5 3 15 8 N 0,0
22.04.2019 00:00:00 9,5 1,1 2 1 9 5 NNW 0,0
21.04.2019 23:00:00 9,9 1,3 5 3 11 6 ENE 0,0
21.04.2019 22:00:00 11,7 1,0 5 3 26 14 N 0,0
21.04.2019 21:00:00 12,2 2,1 4 2 9 5 N 0,0
21.04.2019 20:00:00 13,6 1,2 8 4 28 15 NW -
21.04.2019 19:00:00 15,3 1,0 16 9 34 18 NW 0,0
21.04.2019 18:00:00 16,1 2,5 15 8 34 18 NW 0,0
21.04.2019 17:00:00 14,9 2,4 13 7 26 14 WNW 0,0
21.04.2019 16:00:00 15,6 2,0 11 6 22 12 NW 0,0
21.04.2019 15:00:00 15,9 -0,8 2 1 44 24 NNE 0,0
21.04.2019 14:00:00 15,1 1,9 8 4 34 18 NW -
21.04.2019 13:00:00 14,8 2,0 11 6 28 15 WNW 0,0
21.04.2019 12:00:00 15,3 0,7 9 5 24 13 NW 0,0
21.04.2019 11:00:00 13,7 -0,4 9 5 26 14 ESE 0,0
21.04.2019 10:00:00 10,9 0,9 4 2 15 8 S 0,0
21.04.2019 09:00:00 7,8 1,0 2 1 11 6 W 0,0
21.04.2019 08:00:00 6,4 0,5 4 2 11 6 SSE -
21.04.2019 07:00:00 5,9 0,6 4 2 15 8 E 0,0
21.04.2019 06:00:00 5,9 0,2 2 1 15 8 NNW 0,0
21.04.2019 05:00:00 5,5 1,0 8 4 16 9 S 0,0
21.04.2019 04:00:00 5,9 0,0 2 1 8 4 NNE 0,0
21.04.2019 03:00:00 6,0 0,1 0 0 5 3 N 0,0
21.04.2019 02:00:00 6,2 0,1 2 1 8 4 NW -
21.04.2019 01:00:00 7,0 -0,2 2 1 5 3 NNW 0,0
21.04.2019 00:00:00 7,7 -0,3 2 1 8 4 SSW 0,0
20.04.2019 23:00:00 8,7 -0,4 2 1 11 6 S 0,0
20.04.2019 22:00:00 10,3 -0,2 0 0 8 4 N 0,0
20.04.2019 21:00:00 12,2 1,5 8 4 13 7 ENE 0,0
20.04.2019 20:00:00 14,4 2,3 5 3 16 9 N -
20.04.2019 19:00:00 16,4 -3,7 11 6 24 13 SSE 0,0
20.04.2019 18:00:00 17,9 -4,8 15 8 31 17 SSE 0,0
20.04.2019 17:00:00 19,0 -3,2 13 7 34 18 SSE 0,0
20.04.2019 16:00:00 19,9 -5,9 9 5 34 18 S 0,0
20.04.2019 15:00:00 19,3 -4,9 13 7 28 15 SSE 0,0
20.04.2019 14:00:00 18,5 -1,9 8 4 21 11 W -
20.04.2019 13:00:00 16,6 -0,6 5 3 18 10 WSW 0,0
20.04.2019 12:00:00 15,8 2,6 5 3 15 8 SSW 0,0
20.04.2019 11:00:00 13,3 4,4 4 2 9 5 SW 0,0
20.04.2019 10:00:00 8,7 6,1 4 2 8 4 S 0,0
20.04.2019 09:00:00 4,7 4,6 0 0 4 2 N 0,0
20.04.2019 08:00:00 2,4 2,1 2 1 5 3 NNW -
20.04.2019 07:00:00 2,1 1,8 0 0 4 2 N 0,0
20.04.2019 06:00:00 2,5 2,1 0 0 5 3 N 0,0
20.04.2019 05:00:00 3,2 2,8 0 0 5 3 N 0,0
20.04.2019 04:00:00 3,6 3,0 0 0 5 3 N 0,0
20.04.2019 03:00:00 4,5 4,1 4 2 8 4 N 0,0
20.04.2019 02:00:00 5,0 4,3 2 1 5 3 NNW -
20.04.2019 01:00:00 6,3 5,4 2 1 8 4 W 0,0
20.04.2019 00:00:00 7,6 6,2 2 1 9 5 SSW 0,0
19.04.2019 23:00:00 9,5 7,4 2 1 8 4 NNE 0,0
19.04.2019 22:00:00 10,2 7,4 4 2 18 10 WSW 1,0
19.04.2019 21:00:00 13,3 4,4 8 4 16 9 NNE 0,0
19.04.2019 20:00:00 14,5 4,2 5 3 26 14 NW -
19.04.2019 19:00:00 15,4 4,4 8 4 21 11 WNW 0,0
19.04.2019 18:00:00 16,5 4,8 9 5 24 13 WNW 0,0
19.04.2019 17:00:00 17,5 3,0 4 2 16 9 S 0,0
19.04.2019 16:00:00 17,1 1,1 4 2 11 6 WSW 0,0
19.04.2019 15:00:00 17,2 0,8 4 2 11 6 SSE 0,0
19.04.2019 14:00:00 16,6 2,2 4 2 11 6 S -
19.04.2019 13:00:00 16,1 2,8 4 2 21 11 SSW 0,0
19.04.2019 12:00:00 16,4 4,1 8 4 21 11 WNW 0,0
19.04.2019 11:00:00 14,4 3,5 4 2 9 5 SW 0,0
19.04.2019 10:00:00 9,9 4,7 0 0 8 4 N 0,0
19.04.2019 09:00:00 5,4 3,9 2 1 8 4 SSE 0,0
19.04.2019 08:00:00 2,6 1,9 0 0 5 3 N -
19.04.2019 07:00:00 2,2 1,5 2 1 5 3 NNW 0,0
19.04.2019 06:00:00 2,6 1,4 0 0 4 2 N 0,0
19.04.2019 05:00:00 3,2 1,9 0 0 5 3 N 0,0
19.04.2019 04:00:00 3,6 2,4 0 0 4 2 N 0,0
19.04.2019 03:00:00 4,4 2,6 0 0 5 3 N 0,0
19.04.2019 02:00:00 5,2 2,9 2 1 4 2 SE -
19.04.2019 01:00:00 6,3 3,3 0 0 4 2 N 0,0
19.04.2019 00:00:00 7,8 3,6 0 0 5 3 N 0,0
18.04.2019 23:00:00 8,9 3,7 2 1 11 6 ESE 0,0
18.04.2019 22:00:00 10,6 3,8 5 3 13 7 NE 0,0
18.04.2019 21:00:00 11,9 4,1 5 3 24 13 NNE 0,0
18.04.2019 20:00:00 14,1 4,7 5 3 18 10 WNW -
18.04.2019 19:00:00 16,4 4,4 5 3 22 12 W 0,0
18.04.2019 18:00:00 17,4 5,3 8 4 34 18 SW 0,0
18.04.2019 17:00:00 19,2 1,2 15 8 31 17 S 0,0
18.04.2019 16:00:00 18,9 2,7 18 10 35 19 S 0,0
18.04.2019 15:00:00 18,5 3,1 18 10 39 21 SSW 0,0
18.04.2019 14:00:00 18,1 2,8 16 9 34 18 S -
18.04.2019 13:00:00 17,4 3,3 18 10 41 22 S 0,0
18.04.2019 12:00:00 16,2 3,3 16 9 34 18 SSW 0,0
18.04.2019 11:00:00 14,8 2,7 13 7 29 16 SSW 0,0
18.04.2019 10:00:00 12,3 3,2 5 3 18 10 S 0,0
18.04.2019 09:00:00 5,9 2,9 0 0 5 3 N 0,0
18.04.2019 08:00:00 2,9 1,7 0 0 4 2 N -
18.04.2019 07:00:00 2,6 1,3 0 0 5 3 N 0,0
18.04.2019 06:00:00 3,4 1,4 2 1 9 5 SW 0,0
18.04.2019 05:00:00 4,1 1,1 4 2 11 6 E 0,0
18.04.2019 04:00:00 5,0 1,7 2 1 15 8 W 0,0
18.04.2019 03:00:00 5,8 1,9 4 2 9 5 ESE 0,0
18.04.2019 02:00:00 5,8 1,7 4 2 9 5 NNW -
18.04.2019 01:00:00 6,6 1,7 4 2 9 5 NE 0,0
18.04.2019 00:00:00 6,8 1,7 4 2 9 5 E 0,0
17.04.2019 23:00:00 7,5 1,6 4 2 9 5 N 0,0
17.04.2019 22:00:00 9,3 1,4 5 3 11 6 NNE 0,0
17.04.2019 21:00:00 9,9 1,3 4 2 22 12 SSE 0,0
17.04.2019 20:00:00 12,8 1,5 16 9 34 18 S -
17.04.2019 19:00:00 14,9 1,1 13 7 29 16 SSW 0,0
17.04.2019 18:00:00 16,6 0,7 13 7 29 16 SSW 0,0
17.04.2019 17:00:00 17,1 -0,2 15 8 29 16 S 0,0
17.04.2019 16:00:00 16,9 -2,8 13 7 31 17 SSW 0,0
17.04.2019 15:00:00 16,8 -0,9 15 8 35 19 SSW 0,0
17.04.2019 14:00:00 15,5 0,9 15 8 41 22 SSW -
17.04.2019 13:00:00 15,1 2,3 15 8 42 23 SSW 0,0
17.04.2019 12:00:00 13,5 2,1 15 8 42 23 SSW 0,0
17.04.2019 11:00:00 11,7 2,4 13 7 28 15 SSW 0,0
17.04.2019 10:00:00 5,0 4,1 2 1 9 5 WSW 0,0
17.04.2019 09:00:00 0,6 0,5 0 0 4 2 N 0,0
17.04.2019 08:00:00 -1,6 -2,0 0 0 8 4 N -
17.04.2019 07:00:00 -1,9 -2,3 4 2 5 3 SE 0,0
17.04.2019 06:00:00 -1,4 -1,8 2 1 5 3 N 0,0
17.04.2019 05:00:00 -1,0 -1,4 0 0 5 3 N 0,0
17.04.2019 04:00:00 -0,5 -0,9 2 1 4 2 SSE 0,0

tt = Température de l'air
td = dewpoint
ff = Vitesse du vent
fx = gusts
dd = Direction du vent
rr = Quantités de précipitations

stations d'obs. à proximité